createdAt,value
2017-05-28T00:00:36.652Z,20.20
2017-05-28T00:03:04.963Z,20.30
2017-05-28T00:05:33.276Z,20.30
2017-05-28T00:08:01.591Z,20.40
2017-05-28T00:10:29.906Z,20.40
2017-05-28T00:12:58.233Z,20.20
2017-05-28T00:15:26.552Z,20.20
2017-05-28T00:17:54.873Z,20.10
2017-05-28T00:20:23.197Z,20.00
2017-05-28T00:22:51.507Z,20.10
2017-05-28T00:25:19.828Z,20.00
2017-05-28T00:27:48.144Z,20.00
2017-05-28T00:30:16.461Z,20.10
2017-05-28T00:32:44.796Z,19.90
2017-05-28T00:35:13.134Z,19.70
2017-05-28T00:37:41.455Z,19.70
2017-05-28T00:40:09.768Z,19.70
2017-05-28T00:42:38.091Z,19.80
2017-05-28T00:45:06.476Z,19.70
2017-05-28T00:47:34.800Z,19.60
2017-05-28T00:50:03.122Z,19.70
2017-05-28T00:52:31.503Z,19.80
2017-05-28T00:54:59.845Z,19.80
2017-05-28T00:57:28.157Z,19.90
2017-05-28T00:59:56.476Z,19.90
2017-05-28T01:02:24.844Z,19.90
2017-05-28T01:04:53.161Z,19.90
2017-05-28T01:07:21.481Z,19.90
2017-05-28T01:09:49.799Z,19.80
2017-05-28T01:12:18.116Z,19.70
2017-05-28T01:14:46.441Z,19.60
2017-05-28T01:17:14.771Z,19.50
2017-05-28T01:19:43.091Z,19.50
2017-05-28T01:22:11.419Z,19.50
2017-05-28T01:24:39.734Z,19.40
2017-05-28T01:27:08.060Z,19.50
2017-05-28T01:29:36.375Z,19.50
2017-05-28T01:32:04.695Z,19.40
2017-05-28T01:34:33.025Z,19.30
2017-05-28T01:37:01.355Z,19.20
2017-05-28T01:39:29.683Z,19.30
2017-05-28T01:41:58.019Z,19.30
2017-05-28T01:44:26.332Z,19.40
2017-05-28T01:46:54.652Z,19.30
2017-05-28T01:49:22.973Z,19.20
2017-05-28T01:51:51.319Z,19.10
2017-05-28T01:54:19.632Z,19.00
2017-05-28T01:56:47.952Z,19.00
2017-05-28T01:59:16.288Z,19.00
2017-05-28T02:01:44.609Z,19.00
2017-05-28T02:04:12.936Z,19.10
2017-05-28T02:06:41.255Z,19.00
2017-05-28T02:09:09.574Z,18.90
2017-05-28T02:11:37.894Z,18.80
2017-05-28T02:14:06.218Z,18.80
2017-05-28T02:16:34.548Z,18.80
2017-05-28T02:19:02.864Z,18.80
2017-05-28T02:21:31.189Z,18.80
2017-05-28T02:23:59.504Z,18.70
2017-05-28T02:26:27.819Z,18.70
2017-05-28T02:28:56.158Z,18.60
2017-05-28T02:31:24.488Z,18.60
2017-05-28T02:33:52.810Z,18.40
2017-05-28T02:36:21.124Z,18.30
2017-05-28T02:38:49.442Z,18.30
2017-05-28T02:41:17.781Z,18.40
2017-05-28T02:43:46.093Z,18.50
2017-05-28T02:46:14.412Z,18.60
2017-05-28T02:48:42.728Z,18.60
2017-05-28T02:51:11.059Z,18.50
2017-05-28T02:53:39.380Z,18.60
2017-05-28T02:56:07.708Z,18.50
2017-05-28T02:58:36.015Z,18.50
2017-05-28T03:01:04.334Z,18.40
2017-05-28T03:03:32.674Z,18.40
2017-05-28T03:06:01.046Z,18.40
2017-05-28T03:08:29.367Z,18.30
2017-05-28T03:10:57.680Z,18.30
2017-05-28T03:13:26.004Z,18.30
2017-05-28T03:15:54.428Z,18.40
2017-05-28T03:18:22.744Z,18.40
2017-05-28T03:20:51.058Z,18.50
2017-05-28T03:23:19.412Z,18.50
2017-05-28T03:25:47.723Z,18.60
2017-05-28T03:28:16.048Z,18.40
2017-05-28T03:30:44.435Z,18.50
2017-05-28T03:33:12.764Z,18.60
2017-05-28T03:35:41.077Z,18.70
2017-05-28T03:38:09.472Z,18.70
2017-05-28T03:40:37.783Z,18.60
2017-05-28T03:43:06.107Z,18.20
2017-05-28T03:45:34.599Z,18.20
2017-05-28T03:48:02.916Z,18.30
2017-05-28T03:50:31.237Z,18.30
2017-05-28T03:52:59.569Z,18.30
2017-05-28T03:55:27.885Z,18.40
2017-05-28T03:57:56.228Z,18.30
2017-05-28T04:00:24.552Z,18.40
2017-05-28T04:02:52.876Z,18.30
2017-05-28T04:05:21.198Z,18.30
2017-05-28T04:07:49.507Z,18.40
2017-05-28T04:10:17.833Z,18.60
2017-05-28T04:12:46.160Z,18.70
2017-05-28T04:15:14.471Z,18.60
2017-05-28T04:17:42.784Z,18.70
2017-05-28T04:20:11.100Z,18.60
2017-05-28T04:22:39.426Z,18.40
2017-05-28T04:25:07.752Z,18.40
2017-05-28T04:27:36.113Z,18.70
2017-05-28T04:30:04.427Z,18.70
2017-05-28T04:32:32.740Z,18.90
2017-05-28T04:35:01.054Z,18.80
2017-05-28T04:37:29.390Z,18.80
2017-05-28T04:39:57.711Z,18.90
2017-05-28T04:42:26.050Z,19.00
2017-05-28T04:44:54.372Z,19.00
2017-05-28T04:47:22.699Z,19.20
2017-05-28T04:49:51.036Z,19.00
2017-05-28T04:52:19.349Z,18.90
2017-05-28T04:54:47.670Z,18.90
2017-05-28T04:57:16.032Z,19.10
2017-05-28T04:59:44.356Z,19.30
2017-05-28T05:02:12.680Z,19.20
2017-05-28T05:04:40.995Z,19.30
2017-05-28T05:07:09.310Z,19.30
2017-05-28T05:09:37.625Z,19.50
2017-05-28T05:12:06.024Z,19.50
2017-05-28T05:14:34.346Z,19.50
2017-05-28T05:17:02.698Z,19.40
2017-05-28T05:19:31.132Z,19.60
2017-05-28T05:21:59.467Z,19.10
2017-05-28T05:24:27.787Z,19.20
2017-05-28T05:26:56.113Z,19.10
2017-05-28T05:29:24.427Z,18.90
2017-05-28T05:31:52.762Z,18.70
2017-05-28T05:34:21.067Z,18.60
2017-05-28T05:36:49.374Z,18.80
2017-05-28T05:39:17.940Z,19.00
2017-05-28T05:41:46.261Z,18.80
2017-05-28T05:44:14.573Z,19.00
2017-05-28T05:46:42.880Z,19.10
2017-05-28T05:49:11.185Z,19.20
2017-05-28T05:51:39.503Z,19.10
2017-05-28T05:54:07.819Z,18.90
2017-05-28T05:56:36.138Z,18.90
2017-05-28T05:59:04.447Z,19.20
2017-05-28T06:01:32.839Z,19.40
2017-05-28T06:04:01.167Z,19.50
2017-05-28T06:06:29.512Z,19.70
2017-05-28T06:08:57.824Z,19.90
2017-05-28T06:11:26.131Z,20.00
2017-05-28T06:13:54.559Z,20.20
2017-05-28T06:16:22.882Z,20.20
2017-05-28T06:18:51.198Z,20.30
2017-05-28T06:21:19.529Z,20.60
2017-05-28T06:23:47.850Z,20.50
2017-05-28T06:26:16.164Z,20.50
2017-05-28T06:28:44.484Z,20.60
2017-05-28T06:31:12.804Z,20.70
2017-05-28T06:33:41.114Z,20.50
2017-05-28T06:36:09.490Z,20.70
2017-05-28T06:38:37.800Z,21.00
2017-05-28T06:41:06.120Z,21.00
2017-05-28T06:43:34.428Z,21.00
2017-05-28T06:46:02.740Z,20.90
2017-05-28T06:48:31.077Z,20.90
2017-05-28T06:50:59.387Z,20.80
2017-05-28T06:53:27.704Z,20.70
2017-05-28T06:55:56.027Z,21.00
2017-05-28T06:58:24.351Z,21.40
2017-05-28T07:00:52.659Z,21.40
2017-05-28T07:03:20.968Z,21.20
2017-05-28T07:05:49.295Z,21.30
2017-05-28T07:08:17.609Z,21.20
2017-05-28T07:10:45.928Z,21.60
2017-05-28T07:13:14.236Z,21.90
2017-05-28T07:15:42.631Z,21.50
2017-05-28T07:18:10.979Z,21.50
2017-05-28T07:20:39.296Z,21.80
2017-05-28T07:23:07.625Z,22.10
2017-05-28T07:25:35.947Z,21.80
2017-05-28T07:28:04.261Z,21.70
2017-05-28T07:30:32.585Z,21.60
2017-05-28T07:33:00.893Z,21.90
2017-05-28T07:35:29.204Z,21.80
2017-05-28T07:37:57.512Z,22.00
2017-05-28T07:40:25.835Z,22.30
2017-05-28T07:42:54.164Z,22.40
2017-05-28T07:45:22.487Z,22.30
2017-05-28T07:47:51.647Z,22.30
2017-05-28T07:50:19.964Z,22.20
2017-05-28T07:52:53.349Z,22.30
2017-05-28T07:55:21.672Z,22.30
2017-05-28T07:57:49.988Z,22.30
2017-05-28T08:00:18.348Z,22.60
2017-05-28T08:02:46.659Z,22.60
2017-05-28T08:05:14.981Z,22.80
2017-05-28T08:07:43.305Z,23.00
2017-05-28T08:10:11.624Z,23.20
2017-05-28T08:12:39.960Z,23.40
2017-05-28T08:15:08.295Z,23.40
2017-05-28T08:17:36.623Z,23.50
2017-05-28T08:20:04.940Z,23.70
2017-05-28T08:22:33.252Z,23.90
2017-05-28T08:25:01.597Z,23.90
2017-05-28T08:27:29.907Z,24.10
2017-05-28T08:29:58.218Z,24.10
2017-05-28T08:32:26.535Z,24.10
2017-05-28T08:34:54.887Z,24.30
2017-05-28T08:37:23.191Z,24.30
2017-05-28T08:39:51.499Z,24.50
2017-05-28T08:42:19.823Z,24.70
2017-05-28T08:44:48.144Z,24.40
2017-05-28T08:47:16.452Z,24.50
2017-05-28T08:49:44.760Z,24.70
2017-05-28T08:52:13.064Z,24.70
2017-05-28T08:54:41.383Z,24.60
2017-05-28T08:57:09.693Z,24.80
2017-05-28T08:59:38.005Z,25.00
2017-05-28T09:02:06.316Z,25.00
2017-05-28T09:04:34.676Z,25.00
2017-05-28T09:07:02.983Z,24.90
2017-05-28T09:09:31.308Z,25.00
2017-05-28T09:11:59.622Z,24.40
2017-05-28T09:14:27.985Z,24.30
2017-05-28T09:16:56.304Z,24.30
2017-05-28T09:19:24.617Z,24.70
2017-05-28T09:21:52.943Z,25.10
2017-05-28T09:24:21.252Z,25.40
2017-05-28T09:26:49.576Z,25.60
2017-05-28T09:29:17.887Z,26.00
2017-05-28T09:31:46.200Z,25.80
2017-05-28T09:34:14.520Z,26.10
2017-05-28T09:36:42.827Z,26.00
2017-05-28T09:39:11.131Z,26.20
2017-05-28T09:41:39.439Z,26.10
2017-05-28T09:44:07.746Z,26.30
2017-05-28T09:46:36.063Z,26.40
2017-05-28T09:49:04.382Z,26.40
2017-05-28T09:51:32.692Z,26.50
2017-05-28T09:54:01.001Z,26.30
2017-05-28T09:56:29.328Z,26.40
2017-05-28T09:58:57.647Z,26.70
2017-05-28T10:01:25.951Z,26.90
2017-05-28T10:03:54.266Z,26.80
2017-05-28T10:06:22.583Z,26.80
2017-05-28T10:08:50.892Z,26.60
2017-05-28T10:11:19.212Z,26.80
2017-05-28T10:13:47.537Z,27.00
2017-05-28T10:16:15.845Z,27.10
2017-05-28T10:18:44.151Z,27.00
2017-05-28T10:21:12.460Z,27.10
2017-05-28T10:23:40.781Z,27.40
2017-05-28T10:26:09.093Z,27.50
2017-05-28T10:28:37.400Z,27.40
2017-05-28T10:31:05.708Z,27.40
2017-05-28T10:33:34.024Z,27.50
2017-05-28T10:36:02.343Z,27.60
2017-05-28T10:38:30.652Z,27.60
2017-05-28T10:40:58.959Z,27.50
2017-05-28T10:43:27.280Z,27.70
2017-05-28T10:45:55.589Z,28.10
2017-05-28T10:48:23.914Z,28.00
2017-05-28T10:50:52.228Z,28.20
2017-05-28T10:53:20.544Z,28.30
2017-05-28T10:55:48.879Z,28.30
2017-05-28T10:58:17.190Z,28.60
2017-05-28T11:01:05.713Z,28.90
2017-05-28T11:03:34.030Z,29.10
2017-05-28T11:06:02.344Z,29.10
2017-05-28T11:08:30.652Z,29.40
2017-05-28T11:10:58.963Z,29.60
2017-05-28T11:13:27.285Z,29.60
2017-05-28T11:15:55.598Z,29.80
2017-05-28T11:18:23.918Z,29.90
2017-05-28T11:20:52.723Z,30.10
2017-05-28T11:23:22.678Z,30.10
2017-05-28T11:25:50.997Z,30.10
2017-05-28T11:28:19.304Z,30.10
2017-05-28T11:30:47.607Z,30.10
2017-05-28T11:33:15.912Z,29.80
2017-05-28T11:35:44.219Z,29.70
2017-05-28T11:38:12.531Z,29.90
2017-05-28T11:40:40.841Z,30.10
2017-05-28T11:43:09.148Z,30.20
2017-05-28T11:45:37.463Z,30.30
2017-05-28T11:48:05.775Z,30.60
2017-05-28T11:50:34.100Z,30.80
2017-05-28T11:53:02.420Z,31.00
2017-05-28T11:55:30.740Z,31.10
2017-05-28T11:57:59.048Z,31.10
2017-05-28T12:00:27.356Z,30.90
2017-05-28T12:02:55.680Z,30.70
2017-05-28T12:05:24.003Z,30.90
2017-05-28T12:07:52.304Z,30.80
2017-05-28T12:10:20.603Z,31.00
2017-05-28T12:12:48.916Z,31.10
2017-05-28T12:15:17.274Z,31.20
2017-05-28T12:17:45.580Z,31.20
2017-05-28T12:20:13.898Z,31.00
2017-05-28T12:22:42.203Z,30.80
2017-05-28T12:25:10.623Z,31.00
2017-05-28T12:27:38.944Z,31.10
2017-05-28T12:30:07.260Z,31.30
2017-05-28T12:32:35.564Z,31.60
2017-05-28T12:35:03.952Z,31.50
2017-05-28T12:37:32.267Z,31.60
2017-05-28T12:40:00.585Z,31.80
2017-05-28T12:42:28.903Z,31.90
2017-05-28T12:44:57.235Z,32.00
2017-05-28T12:47:25.545Z,31.80
2017-05-28T12:49:53.852Z,31.70
2017-05-28T12:52:22.168Z,31.90
2017-05-28T12:54:50.478Z,31.90
2017-05-28T12:57:18.786Z,31.90
2017-05-28T12:59:47.127Z,31.90
2017-05-28T13:02:15.443Z,31.70
2017-05-28T13:04:43.760Z,31.50
2017-05-28T13:07:12.075Z,31.70
2017-05-28T13:09:40.396Z,31.80
2017-05-28T13:12:08.708Z,32.00
2017-05-28T13:14:37.018Z,32.10
2017-05-28T13:17:05.728Z,32.20
2017-05-28T13:19:34.041Z,32.30
2017-05-28T13:22:02.365Z,32.60
2017-05-28T13:24:30.676Z,32.90
2017-05-28T13:26:59.045Z,33.00
2017-05-28T13:29:27.359Z,32.90
2017-05-28T13:31:55.668Z,32.80
2017-05-28T13:34:23.981Z,32.90
2017-05-28T13:36:52.289Z,33.10
2017-05-28T13:39:20.620Z,33.10
2017-05-28T13:41:48.939Z,33.00
2017-05-28T13:44:17.280Z,32.90
2017-05-28T13:46:45.619Z,32.80
2017-05-28T13:49:13.924Z,32.50
2017-05-28T13:51:42.237Z,32.70
2017-05-28T13:54:10.559Z,32.90
2017-05-28T13:56:38.863Z,33.10
2017-05-28T13:59:07.181Z,33.30
2017-05-28T14:01:35.495Z,33.30
2017-05-28T14:04:03.899Z,33.10
2017-05-28T14:06:32.220Z,33.40
2017-05-28T14:09:00.527Z,33.60
2017-05-28T14:11:28.836Z,33.70
2017-05-28T14:13:57.191Z,33.50
2017-05-28T14:16:25.508Z,33.10
2017-05-28T14:18:53.823Z,33.20
2017-05-28T14:21:22.133Z,33.20
2017-05-28T14:23:50.440Z,33.40
2017-05-28T14:26:18.751Z,33.40
2017-05-28T14:28:47.172Z,33.60
2017-05-28T14:31:15.488Z,33.90
2017-05-28T14:33:43.796Z,33.80
2017-05-28T14:36:12.108Z,34.10
2017-05-28T14:38:40.459Z,34.20
2017-05-28T14:41:08.769Z,34.10
2017-05-28T14:43:37.096Z,34.00
2017-05-28T14:46:05.403Z,33.90
2017-05-28T14:48:33.728Z,34.20
2017-05-28T14:51:02.071Z,34.00
2017-05-28T14:53:30.380Z,34.10
2017-05-28T14:55:58.705Z,34.20
2017-05-28T14:58:27.311Z,34.40
2017-05-28T15:00:55.615Z,34.40
2017-05-28T15:03:24.076Z,34.40
2017-05-28T15:05:52.456Z,34.30
2017-05-28T15:08:20.791Z,34.20
2017-05-28T15:10:49.167Z,34.20
2017-05-28T15:13:17.483Z,34.10
2017-05-28T15:15:45.907Z,34.20
2017-05-28T15:18:14.224Z,34.00
2017-05-28T15:20:42.549Z,33.70
2017-05-28T15:23:10.855Z,34.10
2017-05-28T15:25:39.165Z,34.30
2017-05-28T15:28:07.472Z,34.30
2017-05-28T15:30:35.908Z,34.30
2017-05-28T15:33:04.224Z,34.60
2017-05-28T15:35:32.624Z,34.30
2017-05-28T15:38:00.941Z,34.20
2017-05-28T15:40:29.380Z,34.30
2017-05-28T15:42:57.692Z,34.40
2017-05-28T15:45:26.012Z,34.30
2017-05-28T15:47:54.322Z,33.90
2017-05-28T15:50:22.644Z,34.20
2017-05-28T15:52:50.964Z,34.40
2017-05-28T15:55:19.276Z,34.60
2017-05-28T15:57:47.609Z,34.40
2017-05-28T16:00:15.931Z,34.20
2017-05-28T16:02:44.240Z,33.50
2017-05-28T16:05:12.548Z,33.20
2017-05-28T16:07:40.871Z,33.20
2017-05-28T16:10:09.192Z,32.70
2017-05-28T16:12:37.500Z,32.50
2017-05-28T16:15:05.817Z,32.10
2017-05-28T16:17:34.124Z,32.10
2017-05-28T16:20:02.444Z,31.90
2017-05-28T16:22:30.759Z,32.20
2017-05-28T16:24:59.068Z,32.10
2017-05-28T16:27:27.372Z,32.00
2017-05-28T16:29:55.680Z,31.90
2017-05-28T16:32:24.034Z,31.90
2017-05-28T16:34:52.352Z,31.80
2017-05-28T16:37:20.757Z,32.00
2017-05-28T16:39:49.068Z,32.00
2017-05-28T16:42:17.375Z,31.80
2017-05-28T16:44:45.728Z,31.50
2017-05-28T16:47:14.048Z,31.60
2017-05-28T16:49:42.360Z,31.30
2017-05-28T16:52:10.679Z,31.00
2017-05-28T16:54:39.004Z,30.60
2017-05-28T16:57:07.320Z,30.40
2017-05-28T16:59:35.632Z,30.30
2017-05-28T17:02:03.954Z,30.10
2017-05-28T17:04:32.264Z,29.90
2017-05-28T17:07:01.223Z,29.40
2017-05-28T17:09:29.530Z,29.20
2017-05-28T17:11:57.916Z,29.10
2017-05-28T17:14:26.228Z,29.10
2017-05-28T17:16:54.547Z,29.10
2017-05-28T17:19:22.864Z,29.50
2017-05-28T17:21:51.175Z,29.60
2017-05-28T17:24:19.520Z,29.60
2017-05-28T17:26:47.835Z,29.20
2017-05-28T17:29:16.140Z,29.10
2017-05-28T17:31:44.475Z,29.20
2017-05-28T17:34:12.817Z,29.40
2017-05-28T17:36:41.144Z,29.30
2017-05-28T17:39:09.452Z,29.10
2017-05-28T17:41:37.782Z,29.20
2017-05-28T17:44:06.096Z,29.00
2017-05-28T17:46:34.407Z,28.90
2017-05-28T17:49:02.727Z,29.00
2017-05-28T17:51:31.042Z,29.10
2017-05-28T17:53:59.365Z,29.30
2017-05-28T17:56:27.675Z,29.30
2017-05-28T17:58:55.982Z,29.00
2017-05-28T18:01:24.320Z,29.00
2017-05-28T18:03:52.632Z,28.70
2017-05-28T18:06:20.944Z,28.80
2017-05-28T18:08:49.256Z,28.60
2017-05-28T18:11:17.563Z,28.30
2017-05-28T18:13:45.888Z,28.00
2017-05-28T18:16:14.209Z,27.80
2017-05-28T18:18:42.524Z,27.80
2017-05-28T18:21:10.835Z,27.90
2017-05-28T18:23:39.141Z,27.70
2017-05-28T18:26:07.465Z,27.90
2017-05-28T18:28:35.792Z,27.80
2017-05-28T18:31:04.105Z,27.80
2017-05-28T18:33:32.414Z,27.60
2017-05-28T18:36:00.737Z,27.70
2017-05-28T18:38:29.059Z,27.60
2017-05-28T18:40:57.368Z,27.20
2017-05-28T18:43:25.681Z,27.10
2017-05-28T18:45:53.991Z,26.90
2017-05-28T18:48:22.305Z,27.00
2017-05-28T18:50:50.633Z,27.00
2017-05-28T18:53:18.951Z,27.00
2017-05-28T18:55:47.261Z,27.20
2017-05-28T18:58:15.569Z,26.90
2017-05-28T19:00:43.886Z,26.80
2017-05-28T19:03:12.239Z,26.70
2017-05-28T19:05:40.551Z,26.50
2017-05-28T19:08:08.859Z,26.60
2017-05-28T19:10:37.175Z,26.30
2017-05-28T19:13:05.483Z,26.00
2017-05-28T19:15:33.808Z,26.20
2017-05-28T19:18:02.127Z,26.40
2017-05-28T19:20:30.432Z,26.30
2017-05-28T19:22:58.983Z,26.30
2017-05-28T19:25:27.336Z,26.00
2017-05-28T19:27:55.659Z,25.80
2017-05-28T19:30:23.973Z,25.60
2017-05-28T19:32:52.279Z,25.40
2017-05-28T19:35:20.591Z,25.60
2017-05-28T19:37:48.911Z,25.80
2017-05-28T19:40:17.234Z,25.90
2017-05-28T19:42:45.556Z,26.00
2017-05-28T19:45:13.892Z,25.80
2017-05-28T19:47:42.212Z,25.80
2017-05-28T19:50:10.540Z,25.80
2017-05-28T19:52:38.909Z,25.60
2017-05-28T19:55:07.221Z,25.50
2017-05-28T19:57:35.529Z,25.50
2017-05-28T20:00:04.328Z,25.50
2017-05-28T20:02:32.652Z,25.20
2017-05-28T20:05:00.978Z,25.30
2017-05-28T20:07:29.287Z,25.30
2017-05-28T20:09:59.437Z,25.20
2017-05-28T20:12:27.792Z,25.20
2017-05-28T20:14:56.108Z,25.20
2017-05-28T20:17:24.442Z,25.30
2017-05-28T20:19:52.781Z,25.40
2017-05-28T20:22:21.116Z,25.50
2017-05-28T20:24:49.423Z,25.30
2017-05-28T20:27:17.757Z,25.20
2017-05-28T20:29:46.081Z,25.20
2017-05-28T20:32:14.396Z,25.30
2017-05-28T20:34:42.728Z,25.30
2017-05-28T20:37:11.042Z,25.10
2017-05-28T20:39:39.351Z,25.10
2017-05-28T20:42:07.680Z,25.20
2017-05-28T20:44:35.996Z,25.20
2017-05-28T20:47:04.320Z,25.20
2017-05-28T20:49:32.629Z,25.00
2017-05-28T20:52:00.941Z,25.10
2017-05-28T20:54:29.280Z,24.90
2017-05-28T20:56:57.605Z,24.50
2017-05-28T20:59:25.218Z,24.50
2017-05-28T21:01:53.544Z,24.60
2017-05-28T21:04:21.872Z,24.50
2017-05-28T21:06:50.219Z,24.40
2017-05-28T21:09:18.528Z,24.40
2017-05-28T21:11:46.848Z,24.50
2017-05-28T21:14:15.218Z,24.60
2017-05-28T21:16:43.524Z,24.50
2017-05-28T21:19:11.848Z,24.60
2017-05-28T21:21:40.176Z,24.80
2017-05-28T21:24:08.480Z,24.60
2017-05-28T21:26:36.791Z,24.70
2017-05-28T21:29:05.099Z,24.80
2017-05-28T21:31:33.446Z,25.00
2017-05-28T21:34:01.766Z,25.10
2017-05-28T21:36:30.091Z,24.80
2017-05-28T21:38:58.568Z,24.60
2017-05-28T21:41:26.879Z,24.40
2017-05-28T21:43:55.225Z,24.20
2017-05-28T21:46:23.648Z,24.20
2017-05-28T21:48:51.974Z,24.10
2017-05-28T21:51:20.390Z,24.30
2017-05-28T21:53:48.707Z,24.60
2017-05-28T21:56:17.023Z,24.60
2017-05-28T21:58:45.333Z,24.70
2017-05-28T22:01:13.640Z,24.80
2017-05-28T22:03:41.989Z,24.90
2017-05-28T22:06:10.310Z,24.70
2017-05-28T22:08:38.632Z,24.30
2017-05-28T22:11:06.950Z,24.20
2017-05-28T22:13:35.258Z,24.20
2017-05-28T22:16:03.584Z,24.30
2017-05-28T22:18:31.893Z,24.30
2017-05-28T22:21:00.215Z,24.40
2017-05-28T22:23:28.525Z,24.40
2017-05-28T22:25:56.836Z,24.20
2017-05-28T22:28:25.164Z,24.20
2017-05-28T22:30:53.476Z,24.10
2017-05-28T22:33:21.796Z,24.10
2017-05-28T22:35:50.114Z,24.10
2017-05-28T22:38:18.428Z,24.00
2017-05-28T22:40:46.732Z,23.90
2017-05-28T22:43:15.037Z,24.00
2017-05-28T22:45:43.356Z,23.90
2017-05-28T22:48:11.659Z,24.00
2017-05-28T22:50:39.968Z,23.90
2017-05-28T22:53:08.275Z,23.90
2017-05-28T22:55:36.588Z,23.60
2017-05-28T22:58:04.908Z,23.40
2017-05-28T23:00:33.215Z,23.50
2017-05-28T23:03:01.519Z,23.50
2017-05-28T23:05:29.836Z,23.50
2017-05-28T23:07:58.147Z,23.30
2017-05-28T23:10:26.464Z,23.30
2017-05-28T23:12:54.772Z,23.40
2017-05-28T23:15:23.088Z,23.20
2017-05-28T23:17:51.400Z,23.10
2017-05-28T23:20:19.705Z,23.00
2017-05-28T23:22:48.024Z,22.90
2017-05-28T23:25:16.348Z,22.90
2017-05-28T23:27:44.756Z,23.10
2017-05-28T23:30:13.064Z,23.10
2017-05-28T23:32:41.371Z,23.20
2017-05-28T23:35:09.694Z,23.00
2017-05-28T23:37:37.999Z,22.90
2017-05-28T23:40:06.315Z,22.90
2017-05-28T23:42:34.627Z,22.80
2017-05-28T23:45:02.941Z,22.80
2017-05-28T23:47:31.266Z,22.80
2017-05-28T23:49:59.584Z,22.50
2017-05-28T23:52:27.893Z,22.30
2017-05-28T23:54:56.204Z,22.20
2017-05-28T23:57:24.519Z,22.20
2017-05-28T23:59:52.839Z,22.40
